Time;durP1;ratioP1;P1;durP2;ratioP2;P2;SDS_P1;SDS_P2;PMS_P1;PMS_P2;Temp;Humidity;BMP_temperature;BMP_pressure;BME280_temperature;BME280_humidity;BME280_pressure;Samples;Min_cycle;Max_cycle;Signal;HPM_P1;HPM_P2
2024/02/11 00:01:22;;;;;;;26.27;15.68;;;10.30;99.90;;;;;;4895457;29;20058;-80
2024/02/11 00:03:54;;;;;;;25.40;16.02;;;10.30;99.90;;;;;;4915229;29;20165;-80
2024/02/11 00:06:23;;;;;;;25.23;15.65;;;10.30;99.90;;;;;;4918508;29;20094;-81
2024/02/11 00:08:51;;;;;;;21.60;13.95;;;10.30;99.90;;;;;;4914985;29;20155;-80
2024/02/11 00:11:18;;;;;;;25.55;15.43;;;10.30;99.90;;;;;;4903694;29;20046;-81
2024/02/11 00:13:45;;;;;;;24.55;14.68;;;10.30;99.90;;;;;;4916172;29;20503;-80
2024/02/11 00:16:14;;;;;;;20.65;12.85;;;10.30;99.90;;;;;;4897118;29;20058;-80
2024/02/11 00:18:42;;;;;;;21.85;15.52;;;10.30;99.90;;;;;;4916612;29;20063;-80
2024/02/11 00:21:11;;;;;;;22.08;15.10;;;10.20;99.90;;;;;;4897357;29;20479;-81
2024/02/11 00:23:42;;;;;;;22.83;15.85;;;10.30;99.90;;;;;;4903767;29;20043;-80
2024/02/11 00:26:09;;;;;;;25.10;16.45;;;10.20;99.90;;;;;;4912791;29;20035;-80
2024/02/11 00:28:38;;;;;;;19.25;13.02;;;10.20;99.90;;;;;;4900600;29;20047;-80
2024/02/11 00:31:06;;;;;;;21.98;13.48;;;10.20;99.90;;;;;;4887653;29;20126;-80
2024/02/11 00:33:35;;;;;;;24.48;15.80;;;10.20;99.90;;;;;;4881621;28;20047;-80
2024/02/11 00:36:05;;;;;;;21.83;13.57;;;10.20;99.90;;;;;;4899709;29;20055;-80
2024/02/11 00:38:32;;;;;;;21.02;13.88;;;10.20;99.90;;;;;;4911753;29;20055;-80
2024/02/11 00:41:00;;;;;;;18.15;12.63;;;10.20;99.90;;;;;;4888060;29;20048;-81
2024/02/11 00:43:32;;;;;;;18.20;12.25;;;10.20;99.90;;;;;;4897540;29;20145;-81
2024/02/11 00:45:59;;;;;;;21.90;13.48;;;9.80;99.90;;;;;;4907090;29;20043;-80
2024/02/11 00:48:30;;;;;;;22.88;13.88;;;10.20;99.90;;;;;;4900389;29;20472;-81
2024/02/11 00:50:58;;;;;;;24.23;14.30;;;10.20;99.90;;;;;;4877243;29;20066;-81
2024/02/11 00:53:25;;;;;;;22.85;15.32;;;10.20;99.90;;;;;;4914464;29;20388;-81
2024/02/11 00:55:54;;;;;;;24.15;15.18;;;10.20;99.90;;;;;;4892772;29;20073;-81
2024/02/11 00:58:22;;;;;;;23.92;15.10;;;10.20;99.90;;;;;;4917166;29;20147;-81
2024/02/11 01:00:50;;;;;;;23.83;14.25;;;10.30;99.90;;;;;;4913628;29;20122;-81
2024/02/11 01:03:17;;;;;;;22.42;14.15;;;10.20;99.90;;;;;;4910679;29;20040;-80
2024/02/11 01:05:47;;;;;;;14.93;9.40;;;10.20;99.90;;;;;;4901240;29;20040;-81
2024/02/11 01:08:16;;;;;;;23.40;14.60;;;10.20;99.90;;;;;;4910635;29;20567;-81
2024/02/11 01:10:44;;;;;;;23.23;14.23;;;10.20;99.90;;;;;;4903701;29;20036;-81
2024/02/11 01:13:18;;;;;;;21.83;14.02;;;10.20;99.90;;;;;;4889699;29;20126;-81
2024/02/11 01:15:46;;;;;;;18.35;14.10;;;10.20;99.90;;;;;;4898428;29;20055;-81
2024/02/11 01:18:13;;;;;;;24.60;14.65;;;10.20;99.90;;;;;;4917727;29;20039;-80
2024/02/11 01:20:43;;;;;;;20.80;12.10;;;10.20;99.90;;;;;;4942049;28;20054;-80
2024/02/11 01:23:12;;;;;;;22.48;12.60;;;10.20;99.90;;;;;;4894325;29;20065;-80
2024/02/11 01:25:44;;;;;;;19.90;11.73;;;10.20;99.90;;;;;;4901248;29;20139;-80
2024/02/11 01:28:13;;;;;;;25.70;14.38;;;10.20;99.90;;;;;;4920302;29;20095;-80
2024/02/11 01:30:42;;;;;;;19.73;13.05;;;10.20;99.90;;;;;;4900312;29;20044;-81
2024/02/11 01:33:09;;;;;;;21.52;13.88;;;10.20;99.90;;;;;;4903196;29;20095;-80
2024/02/11 01:35:39;;;;;;;22.60;13.65;;;10.20;99.90;;;;;;4933306;29;20047;-80
2024/02/11 01:38:07;;;;;;;21.85;13.90;;;10.20;99.90;;;;;;4916640;28;20047;-81
2024/02/11 01:40:34;;;;;;;21.10;12.98;;;10.20;99.90;;;;;;4899749;29;20048;-81
2024/02/11 01:43:11;;;;;;;16.40;11.00;;;10.20;99.90;;;;;;4888816;29;20051;-80
2024/02/11 01:45:39;;;;;;;20.13;11.93;;;10.20;99.90;;;;;;4890371;29;20054;-81
2024/02/11 01:48:08;;;;;;;21.00;12.63;;;10.20;99.90;;;;;;4887604;29;20427;-81
2024/02/11 01:50:37;;;;;;;20.08;12.50;;;10.20;99.90;;;;;;4920919;29;20072;-80
2024/02/11 01:53:09;;;;;;;21.33;12.98;;;10.10;99.90;;;;;;4934544;29;20511;-81
2024/02/11 01:55:44;;;;;;;21.35;13.55;;;10.10;99.90;;;;;;4913322;29;20126;-81
2024/02/11 01:58:16;;;;;;;24.33;15.38;;;10.10;99.90;;;;;;4902712;29;20463;-80
2024/02/11 02:00:44;;;;;;;19.48;12.05;;;10.10;99.90;;;;;;4926277;29;20048;-80
2024/02/11 02:03:14;;;;;;;20.92;13.50;;;10.10;99.90;;;;;;4901013;29;20060;-80
2024/02/11 02:05:42;;;;;;;22.83;13.15;;;10.10;99.90;;;;;;4918506;29;20376;-81
2024/02/11 02:08:11;;;;;;;24.20;14.30;;;10.10;99.90;;;;;;4894093;29;20036;-81
2024/02/11 02:10:40;;;;;;;18.33;10.27;;;10.10;99.90;;;;;;4924465;29;20132;-80
2024/02/11 02:13:07;;;;;;;24.88;12.68;;;10.10;99.90;;;;;;4917911;29;20055;-80
2024/02/11 02:15:35;;;;;;;22.38;12.55;;;10.00;99.90;;;;;;4930907;29;20039;-81
2024/02/11 02:18:03;;;;;;;25.73;13.05;;;10.00;99.90;;;;;;4897235;29;20439;-81
2024/02/11 02:20:31;;;;;;;20.73;11.95;;;10.00;99.90;;;;;;4892394;29;20503;-80
2024/02/11 02:22:58;;;;;;;29.13;14.07;;;10.00;99.90;;;;;;4903001;29;20063;-80
2024/02/11 02:25:26;;;;;;;19.33;10.35;;;10.00;99.90;;;;;;4904146;29;20270;-81
2024/02/11 02:27:54;;;;;;;22.63;12.95;;;10.00;99.90;;;;;;4893938;29;20048;-80
2024/02/11 02:30:22;;;;;;;20.30;12.38;;;10.00;99.90;;;;;;4907574;29;20055;-80
2024/02/11 02:32:49;;;;;;;18.40;10.00;;;9.90;99.90;;;;;;4921905;29;20054;-80
2024/02/11 02:35:21;;;;;;;21.73;13.73;;;9.90;99.90;;;;;;4889723;29;20054;-81
2024/02/11 02:37:52;;;;;;;26.63;13.82;;;9.90;99.90;;;;;;4926690;29;21160;-80
2024/02/11 02:40:26;;;;;;;29.88;15.25;;;9.90;99.90;;;;;;4918508;29;20039;-80
2024/02/11 02:42:56;;;;;;;24.75;11.23;;;9.90;99.90;;;;;;4908943;29;20135;-80
2024/02/11 02:45:24;;;;;;;22.25;12.40;;;9.90;99.90;;;;;;4905124;29;20507;-80
2024/02/11 02:47:53;;;;;;;23.65;13.55;;;9.80;99.90;;;;;;4935874;29;20811;-80
2024/02/11 02:50:21;;;;;;;23.27;11.15;;;9.80;99.90;;;;;;4947615;28;20035;-80
2024/02/11 02:52:51;;;;;;;21.05;12.50;;;9.80;99.90;;;;;;4919768;29;20507;-81
2024/02/11 02:55:19;;;;;;;25.75;13.77;;;9.80;99.90;;;;;;4888013;29;20048;-80
2024/02/11 02:57:47;;;;;;;22.63;11.05;;;9.80;99.90;;;;;;4929598;29;20482;-80
2024/02/11 03:00:22;;;;;;;25.63;12.35;;;9.80;99.90;;;;;;4907449;29;20048;-80
2024/02/11 03:02:52;;;;;;;29.17;13.05;;;9.80;99.90;;;;;;4919920;29;20056;-80
2024/02/11 03:05:22;;;;;;;26.38;11.90;;;9.80;99.90;;;;;;4913071;29;20048;-80
2024/02/11 03:07:53;;;;;;;26.38;12.23;;;9.70;99.90;;;;;;4926831;29;20082;-80
2024/02/11 03:10:21;;;;;;;35.58;13.15;;;9.80;99.90;;;;;;4905530;29;20071;-80
2024/02/11 03:12:49;;;;;;;25.83;11.95;;;9.70;99.90;;;;;;4901125;29;20040;-79
2024/02/11 03:15:17;;;;;;;28.05;11.55;;;9.70;99.90;;;;;;4924756;29;20095;-80
2024/02/11 03:17:45;;;;;;;26.08;11.70;;;9.70;99.90;;;;;;4891597;28;20040;-80
2024/02/11 03:20:15;;;;;;;32.35;15.43;;;9.70;99.90;;;;;;4903867;29;20052;-80
2024/02/11 03:22:43;;;;;;;24.65;12.35;;;9.70;99.90;;;;;;4903959;29;20104;-80
2024/02/11 03:25:12;;;;;;;23.67;10.50;;;9.70;99.90;;;;;;4892107;29;20048;-80
2024/02/11 03:27:47;;;;;;;24.95;11.63;;;9.70;99.90;;;;;;4904556;29;20044;-80
2024/02/11 03:30:15;;;;;;;27.38;12.20;;;9.70;99.90;;;;;;4886188;29;20048;-80
2024/02/11 03:32:47;;;;;;;12.93;6.65;;;9.70;99.90;;;;;;4915567;29;20130;-80
2024/02/11 03:35:15;;;;;;;21.00;9.07;;;9.70;99.90;;;;;;4902850;29;20118;-80
2024/02/11 03:37:42;;;;;;;20.67;11.02;;;9.70;99.90;;;;;;4938839;29;20103;-81
2024/02/11 03:40:12;;;;;;;28.73;11.10;;;9.60;99.90;;;;;;4949919;28;20073;-80
2024/02/11 03:42:41;;;;;;;28.55;14.38;;;9.60;99.90;;;;;;4915850;29;20043;-80
2024/02/11 03:45:09;;;;;;;29.85;12.80;;;9.50;99.90;;;;;;4889939;29;20419;-81
2024/02/11 03:47:44;;;;;;;26.92;12.98;;;9.50;99.90;;;;;;4905395;28;20530;-81
2024/02/11 03:50:14;;;;;;;22.63;9.90;;;9.50;99.90;;;;;;4904809;29;20807;-81
2024/02/11 03:52:43;;;;;;;24.15;13.63;;;9.40;99.90;;;;;;4918358;29;20036;-81
2024/02/11 03:55:11;;;;;;;28.73;12.77;;;9.30;99.90;;;;;;4906936;29;20047;-81
2024/02/11 03:57:41;;;;;;;31.50;15.73;;;9.30;99.90;;;;;;4895148;29;20046;-81
2024/02/11 04:00:21;;;;;;;37.30;14.90;;;9.30;99.90;;;;;;4884104;29;20048;-81
2024/02/11 04:02:49;;;;;;;32.28;12.32;;;9.30;99.90;;;;;;4895000;29;20052;-80
2024/02/11 04:05:16;;;;;;;32.33;14.93;;;9.30;99.90;;;;;;4904230;29;20100;-81
2024/02/11 04:07:47;;;;;;;34.70;14.23;;;9.30;99.90;;;;;;4911914;29;20097;-81
2024/02/11 04:10:19;;;;;;;38.50;16.15;;;9.30;99.90;;;;;;4886840;29;20082;-80
2024/02/11 04:12:47;;;;;;;26.15;11.77;;;9.20;99.90;;;;;;4915610;29;20130;-80
2024/02/11 04:15:19;;;;;;;34.80;15.40;;;9.20;99.90;;;;;;4913505;29;20051;-81
2024/02/11 04:17:48;;;;;;;31.95;13.43;;;9.10;99.90;;;;;;4908825;29;20075;-80
2024/02/11 04:20:23;;;;;;;32.80;13.27;;;9.10;99.90;;;;;;4936125;29;20047;-80
2024/02/11 04:22:58;;;;;;;30.33;11.52;;;9.10;99.90;;;;;;4931356;29;20522;-81
2024/02/11 04:25:33;;;;;;;27.30;13.48;;;9.10;99.90;;;;;;4902957;29;20081;-80
2024/02/11 04:28:07;;;;;;;24.27;11.25;;;9.10;99.90;;;;;;4916709;29;20455;-80
2024/02/11 04:30:38;;;;;;;;;;;9.00;99.90;;;;;;4889425;29;20134;-80
2024/02/11 04:33:08;;;;;;;25.30;11.90;;;9.10;99.90;;;;;;4941333;28;19922;-80
2024/02/11 04:35:35;;;;;;;33.95;14.15;;;9.00;99.90;;;;;;4916854;29;20143;-81
2024/02/11 04:38:12;;;;;;;29.60;12.80;;;8.90;99.90;;;;;;4918684;29;20495;-80
2024/02/11 04:40:40;;;;;;;38.60;14.70;;;9.00;99.90;;;;;;4900087;29;20404;-80
2024/02/11 04:43:09;;;;;;;37.00;14.95;;;9.00;99.90;;;;;;4916517;29;20058;-80
2024/02/11 04:45:37;;;;;;;25.02;9.68;;;8.90;99.90;;;;;;4903546;29;20130;-81
2024/02/11 04:48:09;;;;;;;25.65;10.95;;;9.00;99.90;;;;;;4910829;29;20040;-80
2024/02/11 04:50:38;;;;;;;38.55;13.90;;;8.90;99.90;;;;;;4910629;29;20040;-80
2024/02/11 04:53:09;;;;;;;44.03;16.98;;;8.90;99.90;;;;;;4916446;29;20050;-80
2024/02/11 04:55:38;;;;;;;32.60;14.18;;;8.90;99.90;;;;;;4900854;29;20076;-80
2024/02/11 04:58:15;;;;;;;44.60;15.15;;;8.90;99.90;;;;;;4926316;29;20106;-80
2024/02/11 05:00:45;;;;;;;26.20;11.40;;;8.90;99.90;;;;;;4922791;29;20113;-80
2024/02/11 05:03:17;;;;;;;30.55;12.55;;;8.80;99.90;;;;;;4890275;29;20130;-80
2024/02/11 05:05:46;;;;;;;22.58;11.10;;;8.90;99.90;;;;;;4916445;29;20043;-81
2024/02/11 05:08:19;;;;;;;39.28;14.73;;;8.90;99.90;;;;;;4924465;29;20039;-80
2024/02/11 05:10:51;;;;;;;41.88;16.65;;;8.90;99.90;;;;;;4940905;29;20043;-81
2024/02/11 05:13:23;;;;;;;45.75;15.52;;;8.90;99.90;;;;;;4912946;29;20458;-81
2024/02/11 05:16:01;;;;;;;39.95;13.93;;;8.80;99.90;;;;;;4898202;29;20099;-81
2024/02/11 05:18:29;;;;;;;39.15;15.00;;;8.90;99.90;;;;;;4903122;29;20051;-82
2024/02/11 05:20:57;;;;;;;45.50;17.20;;;9.20;99.90;;;;;;4916469;29;20063;-80
2024/02/11 05:23:25;;;;;;;43.95;16.85;;;8.90;99.90;;;;;;4917045;29;20044;-82
2024/02/11 05:25:53;;;;;;;44.60;16.00;;;8.90;99.90;;;;;;4890400;29;20051;-80
2024/02/11 05:28:20;;;;;;;39.75;16.38;;;8.90;99.90;;;;;;4907329;29;20043;-82
2024/02/11 05:30:48;;;;;;;19.92;11.60;;;8.90;99.90;;;;;;4870397;29;20130;-80
2024/02/11 05:33:18;;;;;;;44.70;15.75;;;8.90;99.90;;;;;;4919972;29;20040;-82
2024/02/11 05:35:48;;;;;;;39.53;16.38;;;8.90;99.90;;;;;;4904475;29;20052;-80
2024/02/11 05:38:19;;;;;;;35.92;14.20;;;8.90;99.90;;;;;;4905570;29;20056;-80
2024/02/11 05:40:50;;;;;;;26.90;11.45;;;8.90;99.90;;;;;;4918054;29;20475;-80
2024/02/11 05:43:21;;;;;;;34.40;14.52;;;8.90;99.90;;;;;;4910962;29;20044;-80
2024/02/11 05:45:49;;;;;;;;;;;8.90;99.90;;;;;;4894744;29;20055;-80
2024/02/11 05:48:17;;;;;;;34.88;16.15;;;9.00;99.90;;;;;;4919733;29;19927;-79
2024/02/11 05:50:46;;;;;;;58.25;17.95;;;9.00;99.90;;;;;;4924023;29;20059;-80
2024/02/11 05:53:14;;;;;;;46.40;15.18;;;9.00;99.90;;;;;;4924101;29;20047;-81
2024/02/11 05:55:41;;;;;;;51.17;18.15;;;9.00;99.90;;;;;;4920420;29;20064;-80
2024/02/11 05:58:10;;;;;;;57.22;19.88;;;9.00;99.90;;;;;;4928500;29;20050;-80
2024/02/11 06:00:42;;;;;;;48.80;15.85;;;9.00;99.90;;;;;;4892562;29;20048;-81
2024/02/11 06:03:11;;;;;;;64.82;18.98;;;9.00;99.90;;;;;;4906493;29;20054;-80
2024/02/11 06:05:40;;;;;;;33.38;14.45;;;9.00;99.90;;;;;;4888536;29;20558;-80
2024/02/11 06:08:09;;;;;;;57.38;19.20;;;9.00;99.90;;;;;;4882823;29;20107;-81
2024/02/11 06:10:40;;;;;;;61.85;18.70;;;9.00;99.90;;;;;;4923845;29;20075;-80
2024/02/11 06:13:08;;;;;;;29.88;13.77;;;9.10;99.90;;;;;;4913685;29;20533;-81
2024/02/11 06:15:37;;;;;;;46.33;15.95;;;9.00;99.90;;;;;;4897657;29;20048;-81
2024/02/11 06:18:06;;;;;;;44.28;16.75;;;9.00;99.90;;;;;;4904268;29;20059;-81
2024/02/11 06:20:34;;;;;;;46.67;17.80;;;9.00;99.90;;;;;;4888891;29;20488;-81
2024/02/11 06:23:05;;;;;;;45.47;17.65;;;9.10;99.90;;;;;;4887320;29;20567;-81
2024/02/11 06:25:33;;;;;;;63.92;21.30;;;9.10;99.90;;;;;;4911711;29;20035;-80
2024/02/11 06:28:01;;;;;;;65.22;18.75;;;9.10;99.90;;;;;;4919145;29;20055;-80
2024/02/11 06:30:29;;;;;;;51.03;18.52;;;9.10;99.90;;;;;;4886783;29;20120;-83
2024/02/11 06:32:56;;;;;;;61.60;20.17;;;9.10;99.90;;;;;;4890550;29;20079;-82
2024/02/11 06:35:27;;;;;;;66.53;19.75;;;9.10;99.90;;;;;;4924166;29;20051;-82
2024/02/11 06:37:57;;;;;;;70.63;20.48;;;9.10;99.90;;;;;;4888014;29;20431;-81
2024/02/11 06:40:30;;;;;;;57.80;19.73;;;9.10;99.90;;;;;;4919507;29;20163;-81
2024/02/11 06:42:59;;;;;;;32.47;12.98;;;9.10;99.90;;;;;;4904843;29;20051;-81
2024/02/11 06:45:28;;;;;;;59.35;19.55;;;9.10;99.90;;;;;;4904129;29;20585;-81
2024/02/11 06:47:56;;;;;;;60.83;19.00;;;9.10;99.90;;;;;;4899948;29;20056;-81
2024/02/11 06:50:26;;;;;;;51.95;17.13;;;9.10;99.90;;;;;;4925884;29;20067;-79
2024/02/11 06:52:56;;;;;;;62.35;19.05;;;9.20;99.90;;;;;;4895823;29;20623;-80
2024/02/11 06:55:26;;;;;;;56.92;18.88;;;9.20;99.90;;;;;;4886462;29;20790;-80
2024/02/11 06:57:54;;;;;;;61.10;17.75;;;9.20;99.90;;;;;;4895913;29;20044;-81
2024/02/11 07:00:24;;;;;;;79.97;21.80;;;9.20;99.90;;;;;;4937658;28;20100;-80
2024/02/11 07:02:55;;;;;;;42.72;16.02;;;9.20;99.90;;;;;;4895219;29;20043;-81
2024/02/11 07:05:23;;;;;;;34.78;13.07;;;9.20;99.90;;;;;;4937560;29;20039;-80
2024/02/11 07:07:51;;;;;;;53.33;17.13;;;9.20;99.90;;;;;;4927527;29;20051;-81
2024/02/11 07:10:22;;;;;;;43.85;14.60;;;9.20;99.90;;;;;;4904282;29;20044;-82
2024/02/11 07:12:51;;;;;;;49.22;16.10;;;9.20;99.90;;;;;;4910813;29;20507;-81
2024/02/11 07:15:19;;;;;;;60.63;20.33;;;9.20;99.90;;;;;;4877055;29;20043;-81
2024/02/11 07:17:47;;;;;;;61.33;19.42;;;9.20;99.90;;;;;;4894397;29;20063;-80
2024/02/11 07:20:14;;;;;;;49.30;14.90;;;9.20;99.90;;;;;;4904136;29;20127;-80
2024/02/11 07:22:43;;;;;;;53.47;16.20;;;9.20;99.90;;;;;;4910806;29;20036;-81
2024/02/11 07:25:12;;;;;;;23.45;10.35;;;9.20;99.90;;;;;;4910935;29;20123;-81
2024/02/11 07:27:42;;;;;;;47.88;16.83;;;9.20;99.90;;;;;;4913346;29;20052;-80
2024/02/11 07:30:11;;;;;;;35.83;13.32;;;9.20;99.90;;;;;;4874089;29;20044;-80
2024/02/11 07:32:44;;;;;;;49.35;16.85;;;9.20;99.90;;;;;;4929872;29;20054;-80
2024/02/11 07:35:15;;;;;;;27.25;14.05;;;9.20;99.90;;;;;;4922789;29;20056;-80
2024/02/11 07:37:43;;;;;;;40.97;14.90;;;9.20;99.90;;;;;;4903026;29;20048;-81
2024/02/11 07:40:14;;;;;;;52.63;15.75;;;9.20;99.90;;;;;;4904346;29;20054;-79
2024/02/11 07:42:45;;;;;;;73.70;19.75;;;9.20;99.90;;;;;;4926948;29;20054;-82
2024/02/11 07:45:16;;;;;;;44.05;16.08;;;9.20;99.90;;;;;;4926398;29;20039;-82
2024/02/11 07:47:47;;;;;;;47.47;16.33;;;9.30;99.90;;;;;;4916736;29;20087;-82
2024/02/11 07:50:19;;;;;;;37.33;13.35;;;9.20;99.90;;;;;;4897903;29;20055;-81
2024/02/11 07:52:49;;;;;;;44.95;17.15;;;9.30;99.90;;;;;;4902479;29;20055;-81
2024/02/11 07:55:17;;;;;;;26.40;10.43;;;9.30;99.90;;;;;;4902611;28;20035;-81
2024/02/11 07:57:46;;;;;;;37.50;14.60;;;9.30;99.90;;;;;;4912665;29;20044;-81
2024/02/11 08:00:15;;;;;;;57.65;18.00;;;9.30;99.90;;;;;;4918980;29;20443;-81
2024/02/11 08:02:43;;;;;;;48.42;17.63;;;9.30;99.90;;;;;;4927108;29;20031;-80
2024/02/11 08:05:12;;;;;;;48.10;17.50;;;9.30;99.90;;;;;;4912038;29;20582;-81
2024/02/11 08:07:39;;;;;;;51.95;19.25;;;9.30;99.90;;;;;;4890674;29;20044;-81
2024/02/11 08:10:07;;;;;;;52.88;17.63;;;9.30;99.90;;;;;;4919434;29;20099;-80
2024/02/11 08:12:34;;;;;;;41.00;15.95;;;9.40;99.90;;;;;;4888143;29;20103;-82
2024/02/11 08:15:02;;;;;;;43.92;16.23;;;9.40;99.90;;;;;;4886322;29;20066;-81
2024/02/11 08:17:30;;;;;;;54.78;17.27;;;9.40;99.90;;;;;;4884162;29;20107;-81
2024/02/11 08:20:00;;;;;;;39.25;18.13;;;9.40;99.90;;;;;;4904746;29;20487;-81
2024/02/11 08:22:28;;;;;;;39.72;16.65;;;9.40;99.90;;;;;;4867667;29;20058;-80
2024/02/11 08:24:55;;;;;;;53.55;19.17;;;9.40;99.90;;;;;;4899174;29;20052;-82
2024/02/11 08:27:24;;;;;;;44.30;17.42;;;9.40;99.90;;;;;;4899489;29;20051;-82
2024/02/11 08:29:52;;;;;;;38.47;14.68;;;9.50;99.90;;;;;;4914850;29;20062;-83
2024/02/11 08:32:20;;;;;;;39.67;16.83;;;9.50;99.90;;;;;;4882515;29;20056;-82
2024/02/11 08:34:49;;;;;;;19.23;8.02;;;9.50;99.90;;;;;;4930665;29;20059;-81
2024/02/11 08:37:17;;;;;;;39.08;17.50;;;9.50;99.90;;;;;;4928070;29;20044;-81
2024/02/11 08:39:44;;;;;;;37.92;15.55;;;9.50;99.90;;;;;;4903425;29;20046;-80
2024/02/11 08:42:11;;;;;;;40.22;18.83;;;9.50;99.90;;;;;;4917111;29;20498;-81
2024/02/11 08:44:39;;;;;;;41.55;17.38;;;9.50;99.90;;;;;;4900697;29;20040;-81
2024/02/11 08:47:09;;;;;;;43.58;17.27;;;9.60;99.90;;;;;;4901122;29;20126;-80
2024/02/11 08:49:37;;;;;;;32.30;13.02;;;9.60;99.90;;;;;;4926804;29;20048;-82
2024/02/11 08:52:07;;;;;;;42.45;17.38;;;9.60;99.90;;;;;;4901943;29;20055;-81
2024/02/11 08:54:36;;;;;;;31.48;16.90;;;9.60;99.90;;;;;;4899821;29;20051;-81
2024/02/11 08:57:06;;;;;;;28.30;17.45;;;9.60;99.90;;;;;;4909982;29;20062;-81
2024/02/11 08:59:35;;;;;;;18.95;11.43;;;9.60;99.90;;;;;;4883094;29;20062;-81
2024/02/11 09:02:03;;;;;;;41.10;17.50;;;9.50;99.90;;;;;;4918309;29;20475;-81
2024/02/11 09:04:31;;;;;;;38.08;16.13;;;9.60;99.90;;;;;;4883925;29;20558;-81
2024/02/11 09:06:58;;;;;;;25.67;15.07;;;9.60;99.90;;;;;;4899912;29;20068;-81
2024/02/11 09:09:29;;;;;;;29.75;13.63;;;9.60;99.90;;;;;;4896411;29;20159;-81
2024/02/11 09:11:58;;;;;;;19.00;12.00;;;9.60;99.90;;;;;;4897956;29;20047;-81
2024/02/11 09:14:30;;;;;;;35.50;16.35;;;9.60;99.90;;;;;;4899446;29;20043;-82
2024/02/11 09:17:01;;;;;;;32.25;14.60;;;9.60;99.90;;;;;;4900861;29;20066;-82
2024/02/11 09:19:30;;;;;;;26.67;16.92;;;9.60;99.90;;;;;;4921351;29;20072;-81
2024/02/11 09:21:58;;;;;;;28.38;12.45;;;9.50;99.90;;;;;;4898459;29;20054;-82
2024/02/11 09:24:28;;;;;;;22.60;11.05;;;9.60;99.90;;;;;;4900377;29;20036;-81
2024/02/11 09:26:57;;;;;;;38.85;17.33;;;9.60;99.90;;;;;;4895183;29;20495;-81
2024/02/11 09:29:26;;;;;;;39.92;18.88;;;9.60;99.90;;;;;;4910074;29;20028;-81
2024/02/11 09:31:54;;;;;;;12.63;7.78;;;9.60;99.90;;;;;;4901533;29;20063;-82
2024/02/11 09:34:22;;;;;;;28.73;16.08;;;9.70;99.90;;;;;;4901160;29;20044;-82
2024/02/11 09:36:49;;;;;;;34.75;17.00;;;9.70;99.90;;;;;;4937286;29;20081;-81
2024/02/11 09:39:16;;;;;;;39.28;16.27;;;9.70;99.90;;;;;;4898736;29;20052;-81
2024/02/11 09:41:45;;;;;;;30.77;14.75;;;9.70;99.90;;;;;;4913211;29;20119;-81
2024/02/11 09:44:17;;;;;;;35.88;16.05;;;9.80;99.90;;;;;;4888063;29;20388;-82
2024/02/11 09:46:52;;;;;;;41.60;17.33;;;9.90;99.90;;;;;;4898806;29;20043;-81
2024/02/11 09:49:23;;;;;;;39.25;17.73;;;9.90;99.90;;;;;;4903928;29;20071;-82
2024/02/11 09:51:54;;;;;;;35.38;16.38;;;10.00;99.90;;;;;;4919943;29;20103;-81
2024/02/11 09:54:27;;;;;;;23.08;12.65;;;10.00;99.90;;;;;;4935184;28;20095;-82
2024/02/11 09:56:54;;;;;;;42.70;21.70;;;10.00;99.90;;;;;;4915721;29;20123;-81
2024/02/11 09:59:26;;;;;;;39.78;17.73;;;10.00;99.90;;;;;;4900585;29;20046;-81
2024/02/11 10:01:57;;;;;;;31.20;17.25;;;10.00;99.90;;;;;;4920653;29;20052;-82
2024/02/11 10:04:30;;;;;;;29.08;14.32;;;10.10;99.90;;;;;;4917936;29;20140;-81
2024/02/11 10:07:01;;;;;;;40.03;18.42;;;10.20;99.90;;;;;;4915694;29;20059;-80
2024/02/11 10:09:28;;;;;;;;;;;10.20;99.90;;;;;;4904588;29;20055;-81
2024/02/11 10:11:56;;;;;;;36.67;17.48;;;10.20;99.90;;;;;;4921460;29;19934;-81
2024/02/11 10:14:29;;;;;;;37.95;20.13;;;10.20;99.90;;;;;;4902210;29;20499;-81
2024/02/11 10:16:59;;;;;;;27.77;13.95;;;10.20;99.90;;;;;;4918294;29;20499;-81
2024/02/11 10:19:28;;;;;;;19.48;12.55;;;10.20;99.90;;;;;;4895948;29;20111;-81
2024/02/11 10:21:58;;;;;;;29.05;15.20;;;10.20;99.90;;;;;;4907172;29;20048;-81
2024/02/11 10:24:35;;;;;;;26.20;13.13;;;10.20;99.90;;;;;;4921751;29;20044;-81
2024/02/11 10:27:04;;;;;;;33.17;15.73;;;10.20;99.90;;;;;;4903078;29;20054;-81
2024/02/11 10:29:33;;;;;;;16.17;9.25;;;10.20;99.90;;;;;;4923824;29;20075;-81
2024/02/11 10:32:06;;;;;;;27.45;16.65;;;10.30;99.90;;;;;;4903149;29;20047;-81
2024/02/11 10:34:33;;;;;;;26.42;15.55;;;10.20;99.90;;;;;;4898204;29;20056;-81
2024/02/11 10:37:00;;;;;;;12.85;7.00;;;10.20;99.90;;;;;;4917031;29;20499;-81
2024/02/11 10:39:28;;;;;;;34.40;19.70;;;10.20;99.90;;;;;;4917554;29;20138;-81
2024/02/11 10:41:56;;;;;;;28.60;16.05;;;10.20;99.90;;;;;;4902727;29;20048;-80
2024/02/11 10:44:23;;;;;;;15.15;8.13;;;10.20;99.90;;;;;;4884143;29;20043;-80
2024/02/11 10:46:52;;;;;;;40.22;20.77;;;10.30;99.90;;;;;;4915526;29;20052;-81
2024/02/11 10:49:19;;;;;;;39.38;19.33;;;10.30;99.90;;;;;;4921100;29;20039;-81
2024/02/11 10:51:48;;;;;;;18.73;8.77;;;10.30;99.90;;;;;;4902023;29;20506;-80
2024/02/11 10:54:16;;;;;;;27.75;14.77;;;10.30;99.90;;;;;;4918762;29;20040;-80
2024/02/11 10:56:43;;;;;;;27.80;14.73;;;10.30;99.90;;;;;;4905320;29;20047;-79
2024/02/11 10:59:27;;;;;;;50.50;26.92;;;10.30;99.90;;;;;;4891303;29;20111;-80
2024/02/11 11:01:59;;;;;;;34.80;20.10;;;10.30;99.90;;;;;;4908717;29;20040;-80
2024/02/11 11:04:30;;;;;;;38.10;20.95;;;10.30;99.90;;;;;;4918601;29;20059;-80
2024/02/11 11:06:57;;;;;;;30.10;16.77;;;10.30;99.90;;;;;;4921478;29;20040;-79
2024/02/11 11:09:25;;;;;;;36.60;19.13;;;10.20;99.90;;;;;;4881397;29;20117;-80
2024/02/11 11:11:53;;;;;;;26.95;17.02;;;10.20;99.90;;;;;;4898095;29;20107;-80
2024/02/11 11:14:22;;;;;;;34.65;20.85;;;10.20;99.90;;;;;;4901960;29;20106;-79
2024/02/11 11:16:49;;;;;;;33.45;16.35;;;10.20;99.90;;;;;;4905400;29;20142;-80
2024/02/11 11:19:18;;;;;;;43.42;21.65;;;10.20;99.90;;;;;;4896331;29;20058;-79
2024/02/11 11:21:54;;;;;;;31.65;19.15;;;10.20;99.90;;;;;;4913273;29;20048;-80
2024/02/11 11:24:25;;;;;;;28.10;14.18;;;10.30;99.90;;;;;;4910026;29;20050;-79
2024/02/11 11:26:53;;;;;;;19.35;12.85;;;10.30;99.90;;;;;;4894459;29;20602;-80
2024/02/11 11:29:25;;;;;;;24.60;17.90;;;10.30;99.90;;;;;;4911198;29;20043;-80
2024/02/11 11:31:59;;;;;;;19.90;16.25;;;10.30;99.90;;;;;;4939568;29;20047;-80
2024/02/11 11:34:31;;;;;;;25.63;20.48;;;10.30;99.90;;;;;;4921175;28;20110;-79
2024/02/11 11:37:12;;;;;;;9.90;7.45;;;10.20;99.90;;;;;;4903668;29;20066;-80
2024/02/11 11:39:43;;;;;;;9.35;8.25;;;10.10;99.90;;;;;;4940410;29;20036;-79
2024/02/11 11:42:17;;;;;;;5.60;5.00;;;10.00;99.90;;;;;;4939590;28;20047;-79
2024/02/11 11:44:45;;;;;;;6.63;5.43;;;10.00;99.90;;;;;;4917031;29;20495;-80
2024/02/11 11:47:13;;;;;;;10.25;7.05;;;9.90;99.90;;;;;;4898583;29;20070;-80
2024/02/11 11:49:42;;;;;;;7.88;6.93;;;9.90;99.90;;;;;;4919490;29;20495;-79
2024/02/11 11:52:10;;;;;;;10.70;8.73;;;9.90;99.90;;;;;;4900358;29;20130;-79
2024/02/11 11:54:37;;;;;;;9.65;8.65;;;9.80;99.90;;;;;;4884789;29;20123;-79
2024/02/11 11:57:08;;;;;;;10.27;9.27;;;9.80;99.90;;;;;;4940684;29;20043;-79
2024/02/11 11:59:35;;;;;;;8.93;7.00;;;9.70;99.90;;;;;;4915983;29;20044;-79
2024/02/11 12:02:02;;;;;;;8.70;7.80;;;9.60;99.90;;;;;;4891091;29;20040;-79
2024/02/11 12:04:36;;;;;;;9.25;7.18;;;9.60;99.90;;;;;;4909974;29;20052;-79
2024/02/11 12:07:06;;;;;;;7.80;7.00;;;9.50;99.90;;;;;;4904829;29;20073;-79
2024/02/11 12:09:33;;;;;;;6.85;6.13;;;9.50;99.90;;;;;;4916742;29;20050;-79
2024/02/11 12:12:03;;;;;;;6.15;5.32;;;9.50;99.90;;;;;;4868889;29;20447;-78
2024/02/11 12:14:31;;;;;;;6.55;5.15;;;9.50;99.90;;;;;;4914093;29;20054;-79
2024/02/11 12:17:01;;;;;;;5.38;4.88;;;9.50;99.90;;;;;;4898630;29;20509;-79
2024/02/11 12:19:37;;;;;;;4.25;3.67;;;9.50;99.90;;;;;;4860223;29;21595;-80
2024/02/11 12:22:08;;;;;;;4.70;4.20;;;9.40;99.90;;;;;;4891982;29;20934;-79
2024/02/11 12:24:41;;;;;;;4.47;4.07;;;9.40;99.90;;;;;;4907650;29;20093;-78
2024/02/11 12:27:17;;;;;;;6.45;5.15;;;9.40;99.90;;;;;;4900629;29;20051;-78
2024/02/11 12:29:56;;;;;;;4.60;4.18;;;9.40;99.90;;;;;;4901542;29;20407;-79
2024/02/11 12:32:32;;;;;;;2.92;2.40;;;9.50;99.90;;;;;;4915393;29;20054;-79
2024/02/11 12:35:00;;;;;;;4.20;3.72;;;9.50;99.90;;;;;;4898474;29;20121;-79
2024/02/11 12:37:35;;;;;;;3.17;2.83;;;9.40;99.90;;;;;;4899517;29;20055;-78
2024/02/11 12:40:03;;;;;;;7.68;3.53;;;9.50;99.90;;;;;;4898974;29;20047;-79
2024/02/11 12:42:30;;;;;;;4.15;3.75;;;9.40;99.90;;;;;;4898697;29;20051;-79
2024/02/11 12:44:58;;;;;;;7.40;3.90;;;9.50;99.90;;;;;;4914459;29;20039;-79
2024/02/11 12:47:26;;;;;;;2.97;2.53;;;9.50;99.90;;;;;;4913511;29;20046;-79